Time;durP1;ratioP1;P1;durP2;ratioP2;P2;SDS_P1;SDS_P2;PMS_P1;PMS_P2;Temp;Humidity;BMP_temperature;BMP_pressure;BME280_temperature;BME280_humidity;BME280_pressure;Samples;Min_cycle;Max_cycle;Signal;HPM_P1;HPM_P2
2023/02/02 00:01:18;;;;;;;;;;;8.70;88.50;;;7.59;72.61;100959.03;6151274;23;19924;-78
2023/02/02 00:03:45;;;;;;;;;;;8.70;88.60;;;7.58;72.65;100958.22;6151553;23;20340;-78
2023/02/02 00:06:13;;;;;;;;;;;8.70;88.70;;;7.58;72.49;100965.34;6147684;23;20008;-78
2023/02/02 00:08:40;;;;;;;;;;;8.70;88.70;;;7.52;72.62;100966.88;6150691;23;19963;-78
2023/02/02 00:11:07;;;;;;;;;;;8.70;88.70;;;7.46;73.20;100976.38;6151320;23;19947;-78
2023/02/02 00:13:34;;;;;;;;;;;8.70;88.80;;;7.45;73.49;100973.91;6151245;23;19916;-75
2023/02/02 00:16:36;;;;;;;;;;;8.70;89.00;;;7.49;73.70;100980.50;6148473;23;19921;-76
2023/02/02 00:19:05;;;;;;;;;;;8.70;89.40;;;7.46;74.03;100971.06;6145109;23;19927;-75
2023/02/02 00:21:33;;;;;;;;;;;8.60;89.70;;;7.43;74.62;100970.63;6151232;23;20303;-76
2023/02/02 00:24:00;;;;;;;;;;;8.60;90.10;;;7.46;74.50;100965.75;6151554;23;20331;-76
2023/02/02 00:26:27;;;;;;;;;;;8.60;90.00;;;7.43;75.26;100960.00;6150150;23;19932;-77
2023/02/02 00:28:54;;;;;;;;;;;8.60;90.60;;;7.40;75.81;100976.25;6148977;23;19950;-77
2023/02/02 00:31:21;;;;;;;;;;;8.60;91.10;;;7.42;76.06;100968.97;6149625;23;19947;-76
2023/02/02 00:33:50;;;;;;;;;;;8.60;91.10;;;7.34;76.64;100969.03;6149679;23;19924;-77
2023/02/02 00:36:17;;;;;;;;;;;8.50;91.80;;;7.28;77.36;100967.09;6150709;23;19928;-77
2023/02/02 00:38:46;;;;;;;;;;;8.40;92.10;;;7.27;77.47;100965.41;6148373;23;19916;-76
2023/02/02 00:41:13;;;;;;;;;;;8.40;92.40;;;7.19;78.03;100966.31;6149547;23;19916;-76
2023/02/02 00:43:41;;;;;;;;;;;8.40;92.40;;;7.18;78.56;100972.63;6151538;23;20347;-76
2023/02/02 00:46:12;;;;;;;;;;;8.40;92.80;;;7.20;78.34;100973.25;6150855;23;19920;-76
2023/02/02 00:48:39;;;;;;;;;;;8.40;92.70;;;7.27;78.11;100968.91;6152921;23;20359;-77
2023/02/02 00:51:06;;;;;;;;;;;8.40;92.50;;;7.30;77.84;100965.06;6151482;23;19921;-77
2023/02/02 00:53:33;;;;;;;;;;;8.40;92.40;;;7.32;78.04;100957.75;6151896;23;19920;-77
2023/02/02 00:56:01;;;;;;;;;;;8.50;92.60;;;7.36;78.03;100959.03;6150250;23;19920;-77
2023/02/02 00:58:28;;;;;;;;;;;8.50;92.80;;;7.39;77.80;100969.31;6151117;23;20332;-77
2023/02/02 01:00:56;;;;;;;;;;;8.50;92.60;;;7.42;78.05;100975.09;6151433;23;19920;-76
2023/02/02 01:03:23;;;;;;;;;;;8.50;92.70;;;7.41;78.08;100965.47;6150811;23;20494;-76
2023/02/02 01:05:50;;;;;;;;;;;8.50;92.80;;;7.42;78.28;100977.75;6151286;23;19920;-76
2023/02/02 01:08:17;;;;;;;;;;;8.60;93.00;;;7.42;78.46;100976.94;6150262;23;19959;-77
2023/02/02 01:10:44;;;;;;;;;;;8.60;93.20;;;7.42;78.88;100974.28;6152587;23;19916;-77
2023/02/02 01:13:13;;;;;;;;;;;8.50;93.40;;;7.44;79.03;100967.78;6151177;23;19927;-77
2023/02/02 01:15:40;;;;;;;;;;;8.60;93.30;;;7.46;78.82;100970.25;6152444;23;19916;-76
2023/02/02 01:18:07;;;;;;;;;;;8.60;93.20;;;7.44;79.28;100972.25;6149390;23;20219;-77
2023/02/02 01:20:33;;;;;;;;;;;8.60;93.50;;;7.42;79.50;100971.63;6150214;23;19924;-77
2023/02/02 01:23:00;;;;;;;;;;;8.60;93.80;;;7.39;80.05;100969.31;6152264;23;19927;-77
2023/02/02 01:25:29;;;;;;;;;;;8.50;94.10;;;7.37;80.08;100976.59;6151030;23;19925;-76
2023/02/02 01:27:56;;;;;;;;;;;8.60;94.40;;;7.36;80.57;100970.47;6151232;23;19920;-76
2023/02/02 01:30:24;;;;;;;;;;;8.50;94.60;;;7.39;80.22;100970.13;6150747;23;19920;-77
2023/02/02 01:32:51;;;;;;;;;;;8.60;94.40;;;7.42;80.28;100972.44;6150718;23;19928;-76
2023/02/02 01:35:18;;;;;;;;;;;8.50;94.30;;;7.44;80.41;100966.94;6152143;23;19928;-77
2023/02/02 01:37:45;;;;;;;;;;;8.60;94.40;;;7.44;80.05;100970.44;6151739;23;19922;-76
2023/02/02 01:40:13;;;;;;;;;;;8.60;94.20;;;7.43;80.35;100971.44;6149780;23;19935;-76
2023/02/02 01:42:40;;;;;;;;;;;8.60;94.40;;;7.51;80.25;100970.53;6153206;23;20336;-77
2023/02/02 01:45:32;;;;;;;;;;;8.70;94.30;;;7.56;79.97;100981.44;6152271;23;20397;-76
2023/02/02 01:48:00;;;;;;;;;;;8.70;94.20;;;7.56;80.15;100976.13;6149659;23;19916;-77
2023/02/02 01:50:29;;;;;;;;;;;8.70;94.40;;;7.58;79.82;100974.13;6152486;23;20532;-76
2023/02/02 01:52:58;;;;;;;;;;;8.70;94.20;;;7.54;79.99;100975.50;6151691;23;19979;-77
2023/02/02 01:55:28;;;;;;;;;;;8.70;94.20;;;7.62;79.82;100985.22;6150970;23;20327;-77
2023/02/02 01:57:57;;;;;;;;;;;8.80;94.10;;;7.66;79.59;100983.84;6149254;23;20348;-77
2023/02/02 02:00:26;;;;;;;;;;;8.80;94.00;;;7.68;79.65;100987.16;6150466;23;19963;-76
2023/02/02 02:02:57;;;;;;;;;;;8.80;94.00;;;7.65;80.10;100990.16;6150241;23;19927;-76
2023/02/02 02:05:28;;;;;;;;;;;8.90;94.40;;;7.64;80.30;100986.69;6151665;23;20330;-76
2023/02/02 02:08:00;;;;;;;;;;;8.80;94.20;;;7.62;80.27;101003.81;6174284;23;19916;-77
2023/02/02 02:10:27;;;;;;;;;;;8.80;94.30;;;7.61;80.41;100992.38;6150688;23;19924;-76
2023/02/02 02:12:54;;;;;;;;;;;8.80;94.30;;;7.64;80.04;101004.44;6150571;23;20019;-77
2023/02/02 02:18:25;;;;;;;;;;;8.80;94.20;;;7.66;80.52;100997.09;6149507;23;19920;-77
2023/02/02 02:28:18;;;;;;;;;;;8.90;94.20;;;7.74;79.95;100979.28;6148123;23;20069;-76
2023/02/02 02:30:59;;;;;;;;;;;8.90;94.20;;;7.74;80.13;100984.59;6149843;23;20004;-76
2023/02/02 02:33:32;;;;;;;;;;;8.90;94.20;;;7.76;79.84;100989.75;6150018;23;20292;-76
2023/02/02 02:36:04;;;;;;;;;;;8.90;94.20;;;7.77;79.99;100987.91;6149944;23;19995;-76
2023/02/02 02:38:37;;;;;;;;;;;8.90;94.40;;;7.73;80.13;100992.75;6150674;23;20407;-77
2023/02/02 02:41:08;;;;;;;;;;;8.90;94.50;;;7.73;80.18;100993.56;6150359;23;19927;-76
2023/02/02 02:43:40;;;;;;;;;;;8.80;94.60;;;7.74;80.02;100989.91;6152540;23;20624;-77
2023/02/02 02:46:09;;;;;;;;;;;8.80;94.60;;;7.78;79.94;100984.25;6149736;23;19920;-77
2023/02/02 02:48:38;;;;;;;;;;;8.90;94.40;;;7.77;79.82;100995.88;6150642;23;19955;-76
2023/02/02 02:51:07;;;;;;;;;;;8.90;94.30;;;7.78;79.73;100995.69;6150439;23;19916;-77
2023/02/02 02:53:36;;;;;;;;;;;8.90;94.20;;;7.77;79.75;100996.69;6175266;23;19920;-77
2023/02/02 02:56:09;;;;;;;;;;;8.90;94.10;;;7.79;80.01;100999.16;6148736;23;19916;-76
2023/02/02 02:58:45;;;;;;;;;;;8.90;94.20;;;7.78;79.74;100997.53;6150342;23;19917;-76
2023/02/02 03:01:16;;;;;;;;;;;8.90;94.00;;;7.81;79.64;100998.00;6150645;23;20062;-76
2023/02/02 03:04:05;;;;;;;;;;;8.90;94.00;;;7.82;79.88;100993.50;6151978;23;19920;-77
2023/02/02 03:06:39;;;;;;;;;;;8.90;94.10;;;7.86;79.58;100995.63;6150659;23;19920;-77
2023/02/02 03:09:10;;;;;;;;;;;9.00;94.00;;;7.87;79.17;100989.31;6151582;23;20364;-77
2023/02/02 03:11:37;;;;;;;;;;;9.00;93.80;;;7.80;79.89;100998.16;6150745;23;19917;-77
2023/02/02 03:14:08;;;;;;;;;;;9.00;94.00;;;7.80;80.17;100992.84;6151663;23;19928;-76
2023/02/02 03:16:36;;;;;;;;;;;9.00;94.10;;;7.84;80.19;100989.66;6148430;23;19924;-77
2023/02/02 03:19:05;;;;;;;;;;;9.00;94.10;;;7.86;79.89;100994.81;6150970;23;19955;-77
2023/02/02 03:21:32;;;;;;;;;;;9.00;94.10;;;7.88;79.93;100990.13;6152387;23;20406;-76
2023/02/02 03:23:59;;;;;;;;;;;9.00;94.10;;;7.91;79.46;100982.63;6150952;23;19924;-77
2023/02/02 03:26:27;;;;;;;;;;;9.00;94.00;;;7.94;79.53;100984.09;6151045;23;19931;-77
2023/02/02 03:28:55;;;;;;;;;;;9.00;93.80;;;7.91;79.48;100974.66;6149017;23;20011;-77
2023/02/02 03:31:22;;;;;;;;;;;9.00;93.80;;;7.87;80.02;100976.03;6151676;23;19917;-76
2023/02/02 03:33:49;;;;;;;;;;;9.00;94.00;;;7.89;80.14;100983.81;6151819;23;19920;-76
2023/02/02 03:36:17;;;;;;;;;;;9.00;94.10;;;7.87;79.95;100977.84;6150320;23;19923;-76
2023/02/02 03:38:44;;;;;;;;;;;9.00;94.10;;;7.85;79.98;100985.16;6149765;23;19924;-77
2023/02/02 03:41:11;;;;;;;;;;;9.00;94.10;;;7.79;80.40;100975.28;6151745;23;19923;-77
2023/02/02 03:43:38;;;;;;;;;;;9.00;94.40;;;7.80;81.02;100974.25;6150208;23;19920;-76
2023/02/02 03:46:06;;;;;;;;;;;9.00;94.60;;;7.75;81.11;100991.53;6149285;23;20354;-76
2023/02/02 03:48:35;;;;;;;;;;;9.00;94.70;;;7.76;81.10;100981.78;6151082;23;19924;-76
2023/02/02 03:51:05;;;;;;;;;;;8.90;94.80;;;7.81;80.96;100983.88;6151765;23;19920;-76
2023/02/02 03:53:34;;;;;;;;;;;9.00;94.80;;;7.83;80.79;100988.00;6151382;23;19921;-76
2023/02/02 03:56:01;;;;;;;;;;;9.00;94.60;;;7.82;80.92;100990.84;6151241;23;20247;-76
2023/02/02 03:58:28;;;;;;;;;;;9.00;94.80;;;7.82;80.99;100991.69;6150911;23;20361;-76
2023/02/02 04:00:59;;;;;;;;;;;8.90;94.90;;;7.85;81.00;100995.78;6150667;23;19924;-76
2023/02/02 04:03:26;;;;;;;;;;;9.00;94.80;;;7.84;80.79;100986.19;6150848;23;19923;-76
2023/02/02 04:05:52;;;;;;;;;;;9.00;94.70;;;7.86;80.75;100986.84;6150326;23;19928;-76
2023/02/02 04:08:19;;;;;;;;;;;9.00;94.80;;;7.82;80.83;100996.16;6150348;23;19920;-77
2023/02/02 04:10:48;;;;;;;;;;;8.90;95.10;;;7.82;81.00;101001.47;6151641;23;20344;-76
2023/02/02 04:13:15;;;;;;;;;;;8.90;95.00;;;7.85;81.07;100987.81;6150966;23;19948;-76
2023/02/02 04:15:41;;;;;;;;;;;9.00;95.00;;;7.84;80.86;100999.44;6151515;23;19916;-77
2023/02/02 04:18:08;;;;;;;;;;;9.00;94.90;;;7.86;80.83;100990.31;6149355;23;19920;-76
2023/02/02 04:20:35;;;;;;;;;;;9.00;94.80;;;7.89;80.79;100997.06;6151167;23;19926;-76
2023/02/02 04:23:02;;;;;;;;;;;9.00;94.70;;;7.95;80.64;101001.66;6151192;23;19924;-76
2023/02/02 04:25:29;;;;;;;;;;;9.00;94.60;;;7.97;80.34;100997.00;6150728;23;20023;-76
2023/02/02 04:27:57;;;;;;;;;;;9.00;94.60;;;7.93;80.40;100999.19;6148225;23;20264;-77
2023/02/02 04:30:24;;;;;;;;;;;9.00;94.70;;;7.92;80.81;101004.69;6150633;23;20353;-77
2023/02/02 04:32:52;;;;;;;;;;;9.00;94.80;;;7.91;80.53;101003.88;6149342;23;19998;-77
2023/02/02 04:35:18;;;;;;;;;;;9.00;94.50;;;7.92;80.69;101008.19;6151591;23;20315;-76
2023/02/02 04:37:45;;;;;;;;;;;9.00;94.60;;;7.91;80.44;101005.72;6150326;23;19950;-77
2023/02/02 04:40:14;;;;;;;;;;;9.00;94.60;;;7.92;80.59;100999.38;6152096;23;20213;-76
2023/02/02 04:42:41;;;;;;;;;;;9.00;94.60;;;7.92;80.51;100996.72;6151210;23;19926;-76
2023/02/02 04:45:10;;;;;;;;;;;9.00;94.70;;;7.94;80.47;100995.53;6151373;23;20332;-77
2023/02/02 04:47:37;;;;;;;;;;;9.00;94.50;;;7.95;80.39;100996.34;6150018;23;19966;-76
2023/02/02 04:50:05;;;;;;;;;;;9.10;94.60;;;7.93;80.47;101001.84;6151215;23;19920;-77
2023/02/02 04:52:32;;;;;;;;;;;9.00;94.60;;;7.91;80.64;101001.22;6151908;23;20006;-77
2023/02/02 04:54:59;;;;;;;;;;;9.00;94.70;;;7.90;80.53;100998.72;6151174;23;19924;-77
2023/02/02 04:57:26;;;;;;;;;;;9.00;94.80;;;7.89;80.78;101005.88;6150389;23;19920;-77
2023/02/02 04:59:53;;;;;;;;;;;9.00;94.80;;;7.88;80.86;101000.75;6151607;23;20332;-77
2023/02/02 05:02:21;;;;;;;;;;;9.00;94.80;;;7.88;80.66;100998.09;6151616;23;19917;-78
2023/02/02 05:04:48;;;;;;;;;;;9.00;94.90;;;7.84;80.92;101000.28;6150199;23;19973;-78
2023/02/02 05:07:15;;;;;;;;;;;8.90;95.10;;;7.80;81.14;100998.16;6149024;23;19924;-80
2023/02/02 05:09:42;;;;;;;;;;;8.90;95.20;;;7.74;81.38;100995.22;6151157;23;19916;-77
2023/02/02 05:12:09;;;;;;;;;;;8.90;95.20;;;7.70;81.32;100998.41;6151171;23;19920;-78
2023/02/02 05:14:36;;;;;;;;;;;8.90;95.40;;;7.69;82.00;100999.41;6149414;23;19920;-77
2023/02/02 05:17:03;;;;;;;;;;;8.80;95.60;;;7.71;81.79;100998.25;6149673;23;20002;-78
2023/02/02 05:19:31;;;;;;;;;;;8.80;95.60;;;7.72;82.16;100996.41;6150514;23;19967;-78
2023/02/02 05:21:58;;;;;;;;;;;8.80;95.70;;;7.70;82.06;100987.78;6151282;23;19917;-77
2023/02/02 05:24:26;;;;;;;;;;;8.80;95.80;;;7.64;82.22;100994.66;6150893;23;19943;-78
2023/02/02 05:26:57;;;;;;;;;;;8.80;95.90;;;7.65;82.17;100993.63;6149774;23;19916;-77
2023/02/02 05:29:24;;;;;;;;;;;8.80;96.00;;;7.64;82.19;100994.66;6150924;23;19925;-77
2023/02/02 05:31:51;;;;;;;;;;;8.80;96.10;;;7.67;82.49;100998.78;6150985;23;19930;-77
2023/02/02 05:34:18;;;;;;;;;;;8.80;96.00;;;7.66;82.43;100999.75;6148895;23;19916;-77
2023/02/02 05:36:46;;;;;;;;;;;8.80;96.00;;;7.65;82.28;100996.28;6150926;23;19921;-78
2023/02/02 05:39:13;;;;;;;;;;;8.80;96.10;;;7.66;82.27;100995.31;6150784;23;19916;-77
2023/02/02 05:41:40;;;;;;;;;;;8.80;96.00;;;7.67;82.21;101001.44;6152923;23;20395;-77
2023/02/02 05:44:09;;;;;;;;;;;8.80;96.00;;;7.68;82.29;101006.56;6152615;23;19916;-77
2023/02/02 05:46:36;;;;;;;;;;;8.80;96.00;;;7.67;82.37;101007.56;6149904;23;19947;-78
2023/02/02 05:49:16;;;;;;;;;;;8.80;96.00;;;7.68;82.37;101011.03;6152492;23;19944;-78
2023/02/02 05:51:46;;;;;;;;;;;8.80;96.00;;;7.70;82.10;101009.84;6151024;23;19916;-77
2023/02/02 05:54:18;;;;;;;;;;;8.90;96.00;;;7.70;82.37;101004.53;6151101;23;19943;-78
2023/02/02 05:56:45;;;;;;;;;;;8.80;95.90;;;7.69;82.13;100999.41;6150398;23;19920;-77
2023/02/02 05:59:12;;;;;;;;;;;8.80;95.80;;;7.71;82.20;101005.34;6152728;23;19924;-77
2023/02/02 06:01:39;;;;;;;;;;;8.80;95.90;;;7.67;82.31;101006.75;6152551;23;19920;-77
2023/02/02 06:04:08;;;;;;;;;;;8.80;95.80;;;7.66;82.24;101013.88;6151654;23;20339;-78
2023/02/02 06:06:37;;;;;;;;;;;8.80;95.90;;;7.66;82.31;101007.72;6151351;23;19940;-77
2023/02/02 06:09:04;;;;;;;;;;;8.80;95.80;;;7.66;82.31;101011.22;6152394;23;19916;-77
2023/02/02 06:11:33;;;;;;;;;;;8.80;95.90;;;7.66;82.58;101015.69;6151587;23;19973;-77
2023/02/02 06:14:00;;;;;;;;;;;8.80;95.90;;;7.64;82.02;101015.06;6151966;23;19920;-77
2023/02/02 06:16:27;;;;;;;;;;;8.80;95.80;;;7.61;82.61;101024.22;6150977;23;19925;-77
2023/02/02 06:18:54;;;;;;;;;;;8.80;96.20;;;7.61;82.59;101018.06;6150208;23;19923;-77
2023/02/02 06:21:22;;;;;;;;;;;8.80;96.20;;;7.62;82.74;101023.22;6151440;23;20590;-77
2023/02/02 06:23:48;;;;;;;;;;;8.80;96.30;;;7.60;83.03;101021.72;6150818;23;19920;-78
2023/02/02 06:26:16;;;;;;;;;;;8.80;96.30;;;7.63;82.84;101021.38;6149361;23;20283;-78
2023/02/02 06:28:49;;;;;;;;;;;8.80;96.30;;;7.58;82.96;101019.25;6151503;23;19917;-77
2023/02/02 06:31:18;;;;;;;;;;;8.80;96.50;;;7.56;83.13;101020.41;6152587;23;19921;-77
2023/02/02 06:33:45;;;;;;;;;;;8.80;96.30;;;7.62;83.02;101006.47;6151042;23;19920;-77
2023/02/02 06:36:12;;;;;;;;;;;8.80;96.50;;;7.61;83.48;101018.06;6147739;23;20330;-76
2023/02/02 06:38:39;;;;;;;;;;;8.80;96.40;;;7.60;83.06;101019.06;6152175;23;20007;-76
2023/02/02 06:41:06;;;;;;;;;;;8.80;96.60;;;7.62;83.43;101020.56;6152113;23;20007;-76
2023/02/02 06:43:33;;;;;;;;;;;8.80;96.50;;;7.65;83.04;101027.31;6151985;23;19920;-77
2023/02/02 06:46:02;;;;;;;;;;;8.80;96.50;;;7.65;83.25;101025.50;6150027;23;19927;-77
2023/02/02 06:48:28;;;;;;;;;;;8.80;96.60;;;7.66;83.11;101029.81;6152069;23;19951;-76
2023/02/02 06:50:57;;;;;;;;;;;8.80;96.60;;;7.65;83.10;101038.75;6150535;23;19948;-77
2023/02/02 06:53:25;;;;;;;;;;;8.80;96.60;;;7.69;82.94;101049.84;6151694;23;19917;-76
2023/02/02 06:55:53;;;;;;;;;;;8.80;96.50;;;7.67;82.83;101055.34;6150215;23;20363;-76
2023/02/02 06:58:20;;;;;;;;;;;8.80;96.30;;;7.66;82.81;101042.25;6151530;23;19927;-76
2023/02/02 07:00:47;;;;;;;;;;;8.80;96.20;;;7.60;82.98;101048.25;6151870;23;19930;-76
2023/02/02 07:03:16;;;;;;;;;;;8.70;96.60;;;7.59;83.26;101043.97;6151269;23;20013;-77
2023/02/02 07:05:43;;;;;;;;;;;8.70;96.80;;;7.62;83.16;101048.94;6150128;23;19927;-76
2023/02/02 07:08:10;;;;;;;;;;;8.70;96.80;;;7.60;83.36;101059.69;6149603;23;20541;-77
2023/02/02 07:10:37;;;;;;;;;;;8.70;96.80;;;7.60;83.56;101056.22;6150816;23;19931;-77
2023/02/02 07:13:05;;;;;;;;;;;8.70;96.90;;;7.56;83.15;101061.06;6149737;23;20264;-77
2023/02/02 07:15:32;;;;;;;;;;;8.70;96.80;;;7.57;83.59;101051.28;6150807;23;19927;-77
2023/02/02 07:18:00;;;;;;;;;;;8.70;96.90;;;7.59;83.41;101050.09;6150264;23;19916;-77
2023/02/02 07:20:28;;;;;;;;;;;8.70;96.80;;;7.62;83.67;101060.38;6151582;23;19925;-76
2023/02/02 07:22:55;;;;;;;;;;;8.80;96.80;;;7.64;83.42;101052.22;6149831;23;19960;-76
2023/02/02 07:25:22;;;;;;;;;;;8.80;96.70;;;7.62;83.17;101059.56;6151190;23;19944;-77
2023/02/02 07:27:53;;;;;;;;;;;8.80;96.80;;;7.64;83.35;101065.50;6150293;23;20235;-76
2023/02/02 07:30:20;;;;;;;;;;;8.80;96.80;;;7.66;83.34;101064.31;6149588;23;19917;-77
2023/02/02 07:32:47;;;;;;;;;;;8.80;96.70;;;7.63;83.31;101066.50;6148883;23;19925;-76
2023/02/02 07:35:14;;;;;;;;;;;8.80;96.80;;;7.61;83.71;101079.97;6151244;23;19976;-76
2023/02/02 07:37:43;;;;;;;;;;;8.80;97.00;;;7.64;83.81;101078.75;6148190;23;20259;-77
2023/02/02 07:40:11;;;;;;;;;;;8.80;97.20;;;7.63;84.29;101072.63;6151509;23;19917;-76
2023/02/02 07:42:38;;;;;;;;;;;8.80;97.20;;;7.62;84.19;101072.81;6150670;23;20427;-76
2023/02/02 07:45:06;;;;;;;;;;;8.80;97.10;;;7.61;84.06;101077.31;6151251;23;20400;-76
2023/02/02 07:47:33;;;;;;;;;;;8.80;97.20;;;7.63;84.32;101069.16;6149937;23;20011;-76
2023/02/02 07:50:00;;;;;;;;;;;8.80;97.20;;;7.65;84.05;101088.38;6150688;23;19917;-76
2023/02/02 07:52:29;;;;;;;;;;;8.80;97.10;;;7.64;84.08;101084.91;6150836;23;19924;-76
2023/02/02 07:54:57;;;;;;;;;;;8.80;97.20;;;7.64;84.32;101076.94;6150826;23;19951;-77
2023/02/02 07:57:24;;;;;;;;;;;8.80;97.20;;;7.69;84.19;101077.22;6150096;23;20351;-76
2023/02/02 07:59:53;;;;;;;;;;;8.80;97.20;;;7.70;83.87;101083.38;6150020;23;19927;-77
2023/02/02 08:02:20;;;;;;;;;;;8.80;97.20;;;7.75;83.90;101078.34;6148182;23;20038;-76
2023/02/02 08:04:47;;;;;;;;;;;8.80;97.20;;;7.72;83.70;101082.19;6149242;23;19924;-76
2023/02/02 08:07:14;;;;;;;;;;;8.90;97.10;;;7.72;83.61;101092.81;6147370;23;20276;-77
2023/02/02 08:09:46;;;;;;;;;;;8.90;97.20;;;7.73;83.95;101091.81;6150281;23;19920;-76
2023/02/02 08:12:15;;;;;;;;;;;8.90;97.40;;;7.75;84.19;101096.94;6150029;23;19921;-77
2023/02/02 08:14:42;;;;;;;;;;;8.90;97.30;;;7.73;83.89;101104.25;6150111;23;19931;-77
2023/02/02 08:17:09;;;;;;;;;;;8.90;97.20;;;7.73;84.03;101099.78;6149157;23;19917;-76
2023/02/02 08:19:35;;;;;;;;;;;8.90;97.20;;;7.78;83.84;101106.38;6149613;23;20161;-77
2023/02/02 08:22:02;;;;;;;;;;;8.90;97.10;;;7.79;84.04;101108.03;6150291;23;20396;-77
2023/02/02 08:24:29;;;;;;;;;;;8.90;97.00;;;7.78;83.90;101103.72;6150616;23;19924;-77
2023/02/02 08:26:56;;;;;;;;;;;8.90;97.10;;;7.75;84.16;101110.19;6147738;23;20306;-76
2023/02/02 08:29:25;;;;;;;;;;;8.90;97.40;;;7.77;84.34;101116.19;6150619;23;20332;-76
2023/02/02 08:31:52;;;;;;;;;;;8.90;97.40;;;7.78;84.26;101117.81;6151194;23;19959;-76
2023/02/02 08:34:19;;;;;;;;;;;8.90;97.40;;;7.80;84.53;101118.47;6150865;23;20267;-76
2023/02/02 08:36:47;;;;;;;;;;;8.90;97.50;;;7.74;84.20;101122.66;6149921;23;19940;-76
2023/02/02 08:39:14;;;;;;;;;;;8.90;97.50;;;7.78;84.09;101117.00;6150483;23;19921;-75
2023/02/02 08:41:41;;;;;;;;;;;8.90;97.50;;;7.72;84.63;101124.69;6151407;23;20346;-76
2023/02/02 08:44:09;;;;;;;;;;;8.90;97.70;;;7.76;84.97;101122.50;6151127;23;19960;-76
2023/02/02 08:46:37;;;;;;;;;;;8.80;97.70;;;7.76;84.64;101122.50;6149431;23;19925;-75
2023/02/02 08:49:04;;;;;;;;;;;8.90;97.70;;;7.74;84.69;101122.66;6151143;23;19994;-75
2023/02/02 08:51:31;;;;;;;;;;;8.90;97.70;;;7.68;85.17;101123.38;6151621;23;20636;-76
2023/02/02 08:53:58;;;;;;;;;;;8.90;97.90;;;7.70;85.10;101131.97;6151580;23;19924;-76
2023/02/02 08:56:25;;;;;;;;;;;8.90;97.80;;;7.72;85.07;101135.28;6149424;23;19916;-76
2023/02/02 08:58:53;;;;;;;;;;;8.90;97.90;;;7.70;85.34;101139.13;6151118;23;19924;-76
2023/02/02 09:01:22;;;;;;;;;;;8.90;98.00;;;7.71;85.63;101148.72;6150577;23;19917;-76
2023/02/02 09:03:53;;;;;;;;;;;8.90;98.10;;;7.74;85.40;101153.69;6150955;23;19920;-76
2023/02/02 09:06:21;;;;;;;;;;;8.90;98.10;;;7.70;85.42;101147.06;6148651;23;19970;-76
2023/02/02 09:08:48;;;;;;;;;;;8.90;98.00;;;7.69;85.57;101162.19;6148979;23;19924;-76
2023/02/02 09:11:16;;;;;;;;;;;8.90;98.20;;;7.75;85.59;101150.84;6152933;23;20007;-76
2023/02/02 09:13:45;;;;;;;;;;;8.90;98.20;;;7.76;85.50;101154.38;6152534;23;19921;-75
2023/02/02 09:16:14;;;;;;;;;;;8.90;98.10;;;7.77;85.42;101169.28;6147892;23;19920;-76
2023/02/02 09:18:42;;;;;;;;;;;8.90;98.20;;;7.80;85.26;101173.41;6150793;23;20458;-76
2023/02/02 09:21:13;;;;;;;;;;;8.90;98.10;;;7.78;85.15;101184.22;6152602;23;19927;-76
2023/02/02 09:23:42;;;;;;;;;;;9.00;97.90;;;7.77;85.31;101185.22;6152405;23;19924;-76
2023/02/02 09:26:10;;;;;;;;;;;8.90;98.00;;;7.78;85.24;101184.22;6150050;23;19928;-76
2023/02/02 09:28:37;;;;;;;;;;;8.90;98.10;;;7.79;85.53;101190.34;6150942;23;19920;-80
2023/02/02 09:31:05;;;;;;;;;;;8.90;98.30;;;7.82;85.46;101203.28;6148575;23;19931;-83
2023/02/02 09:33:32;;;;;;;;;;;9.00;98.10;;;7.81;85.38;101189.19;6152922;23;19920;-80
2023/02/02 09:36:05;;;;;;;;;;;9.00;98.10;;;7.79;85.20;101198.31;6150192;23;20237;-81
2023/02/02 09:38:33;;;;;;;;;;;8.90;98.30;;;7.75;85.66;101203.97;6151008;23;19981;-80
2023/02/02 09:41:01;;;;;;;;;;;8.90;98.40;;;7.78;85.83;101209.94;6150927;23;19917;-80
2023/02/02 09:43:41;;;;;;;;;;;8.90;98.50;;;7.82;85.86;101211.25;6152538;23;19920;-80
2023/02/02 09:46:17;;;;;;;;;;;8.90;98.70;;;7.84;85.74;101219.84;6151973;23;19920;-78
2023/02/02 09:48:50;;;;;;;;;;;9.00;98.60;;;7.82;85.89;101225.34;6151061;23;19921;-78
2023/02/02 09:51:20;;;;;;;;;;;9.00;98.60;;;7.83;85.83;101236.78;6151619;23;19916;-78
2023/02/02 09:53:52;;;;;;;;;;;9.00;98.50;;;7.80;86.04;101237.94;6152291;23;19920;-79
2023/02/02 09:56:24;;;;;;;;;;;8.90;98.70;;;7.83;86.16;101242.09;6149565;23;20640;-79
2023/02/02 09:58:54;;;;;;;;;;;8.90;98.60;;;7.82;85.81;101241.28;6152376;23;19999;-79
2023/02/02 10:01:24;;;;;;;;;;;9.10;98.70;;;7.83;86.06;101247.41;6152623;23;20003;-79
2023/02/02 10:04:00;;;;;;;;;;;9.00;98.40;;;7.84;85.52;101246.41;6151432;23;19916;-79
2023/02/02 10:06:34;;;;;;;;;;;9.00;98.30;;;7.83;85.46;101256.22;6149339;23;19920;-79
2023/02/02 10:09:11;;;;;;;;;;;9.10;98.50;;;7.84;85.60;101257.03;6151975;23;19920;-79
2023/02/02 10:11:44;;;;;;;;;;;9.00;98.30;;;7.81;85.40;101258.22;6151771;23;19920;-79
2023/02/02 10:14:18;;;;;;;;;;;9.00;98.20;;;7.78;85.67;101250.59;6152469;23;20335;-79
2023/02/02 10:16:46;;;;;;;;;;;8.90;98.30;;;7.80;85.58;101253.88;6151318;23;19920;-79
2023/02/02 10:19:14;;;;;;;;;;;8.90;98.30;;;7.83;85.62;101260.69;6152466;23;19995;-79
2023/02/02 10:21:46;;;;;;;;;;;8.90;98.50;;;7.83;85.81;101258.88;6150154;23;19924;-79
2023/02/02 10:24:17;;;;;;;;;;;8.90;98.50;;;7.84;85.53;101259.69;6152257;23;20007;-79
2023/02/02 10:26:47;;;;;;;;;;;9.00;98.30;;;7.79;85.64;101270.00;6151013;23;19920;-79
2023/02/02 10:29:17;;;;;;;;;;;9.00;98.30;;;7.81;85.78;101276.81;6152252;23;19920;-79
2023/02/02 10:31:56;;;;;;;;;;;8.90;98.30;;;7.79;85.52;101267.34;6152131;23;19927;-79
2023/02/02 10:34:27;;;;;;;;;;;9.00;98.40;;;7.78;85.43;101277.16;6151962;23;19921;-79
2023/02/02 10:37:02;;;;;;;;;;;9.00;98.10;;;7.80;85.95;101269.81;6150845;23;19921;-79
2023/02/02 10:39:40;;;;;;;;;;;9.00;98.30;;;7.84;85.42;101283.59;6151672;23;20019;-79
2023/02/02 10:42:17;;;;;;;;;;;9.00;98.30;;;7.87;85.23;101277.94;6150903;23;19916;-79
2023/02/02 10:44:49;;;;;;;;;;;9.00;98.10;;;7.89;85.39;101281.25;6152031;23;20015;-79
2023/02/02 10:47:22;;;;;;;;;;;9.00;98.10;;;7.92;84.93;101276.41;6150787;23;19920;-79
2023/02/02 10:49:54;;;;;;;;;;;9.00;97.90;;;7.92;84.65;101272.94;6152154;23;19963;-79
2023/02/02 10:52:29;;;;;;;;;;;9.00;97.90;;;7.95;85.07;101267.25;6151559;23;19943;-79
2023/02/02 10:55:01;;;;;;;;;;;9.00;97.90;;;7.95;84.91;101275.22;6152255;23;20003;-79
2023/02/02 10:57:50;;;;;;;;;;;9.10;98.00;;;7.96;84.91;101277.72;6150438;23;19948;-79
2023/02/02 11:00:22;;;;;;;;;;;9.10;98.10;;;7.97;85.05;101275.91;6151929;23;19916;-79
2023/02/02 11:02:49;;;;;;;;;;;9.10;98.00;;;7.98;84.78;101286.34;6151791;23;19920;-79
2023/02/02 11:08:28;;;;;;;;;;;9.20;97.80;;;8.00;84.48;101283.50;6150419;23;20024;-79
2023/02/02 11:10:57;;;;;;;;;;;9.10;97.70;;;8.00;84.75;101288.81;6152180;23;19920;-79
2023/02/02 11:13:31;;;;;;;;;;;9.20;97.70;;;8.03;84.73;101288.47;6150453;23;19999;-79
2023/02/02 11:16:25;;;;;;;;;;;9.20;97.70;;;8.01;84.56;101285.19;6151105;23;19916;-79
2023/02/02 11:18:53;;;;;;;;;;;9.20;97.60;;;7.99;84.07;101289.81;6151452;23;19923;-78
2023/02/02 11:21:22;;;;;;;;;;;9.10;97.30;;;7.99;84.19;101281.84;6151651;23;20334;-79
2023/02/02 11:23:57;;;;;;;;;;;9.10;97.40;;;7.96;84.33;101283.03;6152109;23;19920;-79
2023/02/02 11:26:27;;;;;;;;;;;9.10;97.60;;;7.98;84.26;101283.69;6150727;23;20011;-79
2023/02/02 11:28:55;;;;;;;;;;;9.20;97.70;;;7.97;84.63;101287.34;6151234;23;19926;-79
2023/02/02 11:31:33;;;;;;;;;;;9.20;97.70;;;8.01;84.28;101287.84;6151722;23;19924;-79
2023/02/02 11:34:16;;;;;;;;;;;9.20;97.50;;;8.03;84.13;101283.16;6149874;23;20311;-79
2023/02/02 11:36:59;;;;;;;;;;;9.20;97.50;;;8.02;84.22;101286.81;6150180;23;19967;-79
2023/02/02 11:39:26;;;;;;;;;;;9.10;97.60;;;7.99;84.50;101279.19;6151409;23;19971;-79
2023/02/02 11:42:00;;;;;;;;;;;9.20;97.70;;;8.02;84.34;101286.00;6151877;23;19916;-79
2023/02/02 11:44:31;;;;;;;;;;;9.10;97.30;;;7.98;83.85;101283.69;6149963;23;19920;-79
2023/02/02 11:46:58;;;;;;;;;;;9.10;97.10;;;8.00;84.14;101278.19;6149970;23;19916;-79